FDX125 ZSNJ-ZBAD
Flight info
| Callsign | FDX125 |
|---|---|
| Flight time | 1h 29m |
| Altitude | 32100 |
| Route | OF71X OF A470 DPX A593 DALIM W157 AVBOX AVBOX9M |
| Aircraft | MD11/H-SDE1E2E3FGHIJ2J3J4J5M1RWXY/LB1D1 |
Departure
| Time | 2026-04-19 08:24 |
|---|---|
| Airport | Nanjing Lukou International Airport (ZSNJ) |
Arrival
| Time | 2026-04-19 09:54 |
|---|---|
| Airport | Beijing Daxing International Airport (ZBAD) |
| Time | Latitude | Longitude | Altitude | Speed | Heading |
|---|---|---|---|---|---|
| 2026-04-19 07:02 | 31.73756 | 118.86383 | 66 ft | 0 kts | 178° |
| 2026-04-19 07:15 | 31.73769 | 118.86382 | 74 ft | 3 kts | 178° |
| 2026-04-19 07:16 | 31.73789 | 118.86381 | 62 ft | 3 kts | 178° |
| 2026-04-19 07:16 | 31.73806 | 118.86381 | 60 ft | 2 kts | 178° |
| 2026-04-19 07:16 | 31.73824 | 118.86381 | 58 ft | 3 kts | 199° |
| 2026-04-19 07:16 | 31.73837 | 118.86388 | 56 ft | 3 kts | 234° |
| 2026-04-19 07:17 | 31.73845 | 118.86405 | 56 ft | 3 kts | 263° |
| 2026-04-19 07:17 | 31.73846 | 118.86428 | 56 ft | 2 kts | 269° |
| 2026-04-19 07:17 | 31.73846 | 118.86439 | 57 ft | 1 kts | 268° |
| 2026-04-19 07:17 | 31.73846 | 118.86440 | 57 ft | 0 kts | 268° |
| 2026-04-19 07:22 | 31.73846 | 118.86423 | 56 ft | 5 kts | 268° |
| 2026-04-19 07:22 | 31.73844 | 118.86355 | 58 ft | 11 kts | 268° |
| 2026-04-19 07:22 | 31.73841 | 118.86241 | 60 ft | 17 kts | 268° |
| 2026-04-19 07:22 | 31.73835 | 118.86098 | 61 ft | 15 kts | 262° |
| 2026-04-19 07:23 | 31.73800 | 118.86010 | 56 ft | 13 kts | 241° |
| 2026-04-19 07:23 | 31.73746 | 118.85909 | 63 ft | 17 kts | 238° |
| 2026-04-19 07:23 | 31.73693 | 118.85835 | 60 ft | 7 kts | 208° |
| 2026-04-19 07:23 | 31.73662 | 118.85836 | 59 ft | 6 kts | 167° |
| 2026-04-19 07:24 | 31.73610 | 118.85872 | 56 ft | 12 kts | 147° |
| 2026-04-19 07:24 | 31.73525 | 118.85935 | 62 ft | 17 kts | 148° |
| 2026-04-19 07:24 | 31.73411 | 118.86019 | 61 ft | 20 kts | 148° |
| 2026-04-19 07:24 | 31.73298 | 118.86103 | 59 ft | 19 kts | 148° |
| 2026-04-19 07:25 | 31.73193 | 118.86180 | 60 ft | 17 kts | 148° |
| 2026-04-19 07:25 | 31.73098 | 118.86250 | 62 ft | 15 kts | 147° |
| 2026-04-19 07:25 | 31.73011 | 118.86314 | 56 ft | 14 kts | 148° |
| 2026-04-19 07:25 | 31.72932 | 118.86372 | 61 ft | 13 kts | 148° |
| 2026-04-19 07:26 | 31.72908 | 118.86390 | 60 ft | 0 kts | 148° |
| 2026-04-19 08:16 | 31.72907 | 118.86391 | 66 ft | 1 kts | 148° |
| 2026-04-19 08:17 | 31.72891 | 118.86403 | 61 ft | 5 kts | 148° |
| 2026-04-19 08:17 | 31.72847 | 118.86436 | 61 ft | 10 kts | 148° |
| 2026-04-19 08:17 | 31.72775 | 118.86489 | 60 ft | 14 kts | 148° |
| 2026-04-19 08:17 | 31.72679 | 118.86560 | 56 ft | 18 kts | 148° |
| 2026-04-19 08:18 | 31.72578 | 118.86635 | 59 ft | 14 kts | 149° |
| 2026-04-19 08:18 | 31.72549 | 118.86641 | 58 ft | 2 kts | 195° |
| 2026-04-19 08:18 | 31.72526 | 118.86626 | 59 ft | 5 kts | 221° |
| 2026-04-19 08:18 | 31.72497 | 118.86581 | 56 ft | 9 kts | 238° |
| 2026-04-19 08:19 | 31.72457 | 118.86506 | 56 ft | 13 kts | 237° |
| 2026-04-19 08:19 | 31.72403 | 118.86405 | 56 ft | 17 kts | 238° |
| 2026-04-19 08:19 | 31.72336 | 118.86278 | 56 ft | 20 kts | 238° |
| 2026-04-19 08:19 | 31.72257 | 118.86133 | 56 ft | 19 kts | 238° |
| 2026-04-19 08:20 | 31.72182 | 118.85992 | 60 ft | 22 kts | 238° |
| 2026-04-19 08:20 | 31.72096 | 118.85831 | 60 ft | 25 kts | 238° |
| 2026-04-19 08:20 | 31.71999 | 118.85650 | 58 ft | 27 kts | 237° |
| 2026-04-19 08:20 | 31.71929 | 118.85521 | 59 ft | 29 kts | 238° |
| 2026-04-19 08:21 | 31.71817 | 118.85311 | 56 ft | 31 kts | 238° |
| 2026-04-19 08:21 | 31.71698 | 118.85088 | 59 ft | 33 kts | 238° |
| 2026-04-19 08:21 | 31.71585 | 118.84877 | 56 ft | 24 kts | 238° |
| 2026-04-19 08:21 | 31.71507 | 118.84743 | 56 ft | 1 kts | 212° |
| 2026-04-19 08:22 | 31.71496 | 118.84738 | 65 ft | 3 kts | 197° |
| 2026-04-19 08:22 | 31.71466 | 118.84746 | 64 ft | 6 kts | 153° |
| 2026-04-19 08:22 | 31.71458 | 118.84752 | 57 ft | 2 kts | 147° |
| 2026-04-19 08:22 | 31.71436 | 118.84768 | 57 ft | 6 kts | 147° |
| 2026-04-19 08:23 | 31.71396 | 118.84801 | 59 ft | 7 kts | 140° |
| 2026-04-19 08:23 | 31.71376 | 118.84852 | 62 ft | 7 kts | 94° |
| 2026-04-19 08:23 | 31.71394 | 118.84900 | 57 ft | 7 kts | 59° |
| 2026-04-19 08:23 | 31.71408 | 118.84929 | 58 ft | 3 kts | 58° |
| 2026-04-19 08:24 | 31.71476 | 118.85058 | 64 ft | 58 kts | 57° |
| 2026-04-19 08:24 | 31.71868 | 118.85780 | 61 ft | 147 kts | 57° |
| 2026-04-19 08:24 | 31.72507 | 118.87023 | 206 ft | 200 kts | 56° |
| 2026-04-19 08:24 | 31.73274 | 118.88387 | 1159 ft | 190 kts | 56° |
| 2026-04-19 08:25 | 31.73998 | 118.89647 | 2363 ft | 188 kts | 56° |
| 2026-04-19 08:25 | 31.74764 | 118.90984 | 3091 ft | 206 kts | 56° |
| 2026-04-19 08:25 | 31.75586 | 118.92422 | 3786 ft | 218 kts | 55° |
| 2026-04-19 08:25 | 31.76450 | 118.93968 | 4420 ft | 235 kts | 56° |
| 2026-04-19 08:26 | 31.77302 | 118.95641 | 5070 ft | 241 kts | 57° |
| 2026-04-19 08:26 | 31.78161 | 118.97344 | 5754 ft | 244 kts | 57° |
| 2026-04-19 08:26 | 31.79039 | 118.99065 | 6367 ft | 247 kts | 57° |
| 2026-04-19 08:26 | 31.79935 | 119.00801 | 6967 ft | 249 kts | 57° |
| 2026-04-19 08:27 | 31.80843 | 119.02546 | 7536 ft | 251 kts | 57° |
| 2026-04-19 08:27 | 31.81760 | 119.04297 | 8090 ft | 252 kts | 56° |
| 2026-04-19 08:27 | 31.82686 | 119.06059 | 8624 ft | 254 kts | 56° |
| 2026-04-19 08:27 | 31.83620 | 119.07832 | 9134 ft | 256 kts | 56° |
| 2026-04-19 08:28 | 31.84560 | 119.09612 | 9634 ft | 257 kts | 56° |
| 2026-04-19 08:28 | 31.85584 | 119.11338 | 10089 ft | 257 kts | 45° |
| 2026-04-19 08:28 | 31.86977 | 119.12603 | 10543 ft | 253 kts | 22° |
| 2026-04-19 08:28 | 31.88669 | 119.13041 | 10980 ft | 250 kts | 356° |
| 2026-04-19 08:29 | 31.90315 | 119.12558 | 11416 ft | 249 kts | 332° |
| 2026-04-19 08:29 | 31.91645 | 119.11230 | 11859 ft | 251 kts | 307° |
| 2026-04-19 08:29 | 31.92370 | 119.09357 | 12289 ft | 255 kts | 288° |
| 2026-04-19 08:29 | 31.92749 | 119.07303 | 12714 ft | 259 kts | 280° |
| 2026-04-19 08:30 | 31.92672 | 119.05150 | 12944 ft | 274 kts | 258° |
| 2026-04-19 08:30 | 31.91983 | 119.03019 | 13251 ft | 282 kts | 249° |
| 2026-04-19 08:30 | 31.91129 | 119.00959 | 13647 ft | 285 kts | 247° |
| 2026-04-19 08:30 | 31.90230 | 118.98871 | 14027 ft | 287 kts | 247° |
| 2026-04-19 08:31 | 31.89325 | 118.96769 | 14509 ft | 288 kts | 247° |
| 2026-04-19 08:31 | 31.88425 | 118.94664 | 15219 ft | 288 kts | 248° |
| 2026-04-19 08:31 | 31.87546 | 118.92539 | 15908 ft | 289 kts | 251° |
| 2026-04-19 08:31 | 31.86955 | 118.90242 | 16194 ft | 302 kts | 267° |
| 2026-04-19 08:32 | 31.87080 | 118.87724 | 16348 ft | 318 kts | 288° |
| 2026-04-19 08:32 | 31.88099 | 118.85366 | 16475 ft | 335 kts | 311° |
| 2026-04-19 08:32 | 31.89962 | 118.83618 | 16628 ft | 355 kts | 333° |
| 2026-04-19 08:32 | 31.92333 | 118.82562 | 16787 ft | 374 kts | 342° |
| 2026-04-19 08:33 | 31.94879 | 118.81797 | 17359 ft | 380 kts | 345° |
| 2026-04-19 08:33 | 31.97468 | 118.81086 | 18051 ft | 383 kts | 345° |
| 2026-04-19 08:33 | 32.00074 | 118.80339 | 18674 ft | 386 kts | 344° |
| 2026-04-19 08:33 | 32.02684 | 118.79543 | 19276 ft | 389 kts | 343° |
| 2026-04-19 08:34 | 32.05302 | 118.78708 | 19870 ft | 392 kts | 342° |
| 2026-04-19 08:34 | 32.07938 | 118.77843 | 20466 ft | 394 kts | 342° |
| 2026-04-19 08:34 | 32.10585 | 118.76962 | 21059 ft | 397 kts | 342° |
| 2026-04-19 08:34 | 32.13255 | 118.76067 | 21654 ft | 400 kts | 341° |
| 2026-04-19 08:35 | 32.15944 | 118.75164 | 22232 ft | 403 kts | 341° |
| 2026-04-19 08:35 | 32.18646 | 118.74255 | 22813 ft | 406 kts | 341° |
| 2026-04-19 08:35 | 32.21370 | 118.73338 | 23386 ft | 409 kts | 341° |
| 2026-04-19 08:35 | 32.24116 | 118.72414 | 23879 ft | 412 kts | 341° |
| 2026-04-19 08:36 | 32.26881 | 118.71484 | 24365 ft | 414 kts | 341° |
| 2026-04-19 08:36 | 32.29664 | 118.70547 | 24862 ft | 417 kts | 341° |
| 2026-04-19 08:36 | 32.32458 | 118.69607 | 25336 ft | 419 kts | 342° |
| 2026-04-19 08:36 | 32.35233 | 118.68672 | 25789 ft | 422 kts | 342° |
| 2026-04-19 08:37 | 32.38061 | 118.67719 | 26269 ft | 424 kts | 342° |
| 2026-04-19 08:37 | 32.40907 | 118.66759 | 26716 ft | 426 kts | 342° |
| 2026-04-19 08:37 | 32.43764 | 118.65795 | 27217 ft | 427 kts | 342° |
| 2026-04-19 08:37 | 32.46629 | 118.64828 | 27696 ft | 429 kts | 342° |
| 2026-04-19 08:38 | 32.49512 | 118.63853 | 28144 ft | 431 kts | 342° |
| 2026-04-19 08:38 | 32.52403 | 118.62875 | 28585 ft | 434 kts | 342° |
| 2026-04-19 08:38 | 32.55314 | 118.61890 | 28987 ft | 437 kts | 342° |
| 2026-04-19 08:38 | 32.58245 | 118.60897 | 29408 ft | 439 kts | 343° |
| 2026-04-19 08:39 | 32.61192 | 118.59898 | 29834 ft | 442 kts | 343° |
| 2026-04-19 08:39 | 32.64155 | 118.58893 | 30223 ft | 444 kts | 343° |
| 2026-04-19 08:39 | 32.67129 | 118.57877 | 30621 ft | 445 kts | 342° |
| 2026-04-19 08:39 | 32.70097 | 118.56836 | 30986 ft | 445 kts | 342° |
| 2026-04-19 08:40 | 32.73063 | 118.55780 | 31359 ft | 444 kts | 342° |
| 2026-04-19 08:40 | 32.76007 | 118.54726 | 31734 ft | 440 kts | 341° |
| 2026-04-19 08:40 | 32.78936 | 118.53677 | 31942 ft | 440 kts | 341° |
| 2026-04-19 08:40 | 32.81867 | 118.52627 | 31997 ft | 439 kts | 341° |
| 2026-04-19 08:41 | 32.87717 | 118.50533 | 31991 ft | 439 kts | 341° |
| 2026-04-19 08:41 | 32.93563 | 118.48440 | 31989 ft | 439 kts | 341° |
| 2026-04-19 08:42 | 32.99414 | 118.46343 | 31997 ft | 439 kts | 341° |
| 2026-04-19 08:42 | 33.05262 | 118.44244 | 31997 ft | 439 kts | 341° |
| 2026-04-19 08:43 | 33.11118 | 118.42140 | 31991 ft | 439 kts | 341° |
| 2026-04-19 08:43 | 33.16967 | 118.40035 | 31996 ft | 439 kts | 341° |
| 2026-04-19 08:44 | 33.22813 | 118.37927 | 31995 ft | 439 kts | 341° |
| 2026-04-19 08:44 | 33.28659 | 118.35815 | 31992 ft | 439 kts | 341° |
| 2026-04-19 08:45 | 33.34482 | 118.33714 | 31992 ft | 441 kts | 341° |
| 2026-04-19 08:45 | 33.40370 | 118.31591 | 32001 ft | 443 kts | 341° |
| 2026-04-19 08:46 | 33.46266 | 118.29462 | 31994 ft | 442 kts | 341° |
| 2026-04-19 08:46 | 33.52159 | 118.27330 | 31993 ft | 442 kts | 341° |
| 2026-04-19 08:47 | 33.58051 | 118.25195 | 31994 ft | 443 kts | 341° |
| 2026-04-19 08:47 | 33.63947 | 118.23055 | 31996 ft | 443 kts | 341° |
| 2026-04-19 08:48 | 33.69856 | 118.20908 | 31988 ft | 443 kts | 341° |
| 2026-04-19 08:48 | 33.75756 | 118.18761 | 31989 ft | 443 kts | 341° |
| 2026-04-19 08:49 | 33.81661 | 118.16609 | 31990 ft | 443 kts | 341° |
| 2026-04-19 08:49 | 33.87571 | 118.14455 | 31988 ft | 444 kts | 341° |
| 2026-04-19 08:50 | 33.93483 | 118.12303 | 31989 ft | 444 kts | 341° |
| 2026-04-19 08:50 | 33.99407 | 118.10146 | 31989 ft | 444 kts | 341° |
| 2026-04-19 08:51 | 34.05322 | 118.07996 | 31992 ft | 444 kts | 341° |
| 2026-04-19 08:51 | 34.11245 | 118.05845 | 31990 ft | 446 kts | 340° |
| 2026-04-19 08:52 | 34.17198 | 118.03680 | 31990 ft | 447 kts | 340° |
| 2026-04-19 08:52 | 34.23155 | 118.01512 | 31989 ft | 447 kts | 340° |
| 2026-04-19 08:53 | 34.29118 | 117.99348 | 31989 ft | 447 kts | 340° |
| 2026-04-19 08:53 | 34.35091 | 117.97214 | 31993 ft | 448 kts | 340° |
| 2026-04-19 08:54 | 34.41071 | 117.95083 | 31989 ft | 449 kts | 340° |
| 2026-04-19 08:54 | 34.47057 | 117.92947 | 31989 ft | 449 kts | 340° |
| 2026-04-19 08:55 | 34.53049 | 117.90804 | 31989 ft | 448 kts | 340° |
| 2026-04-19 08:55 | 34.59031 | 117.88661 | 31996 ft | 448 kts | 339° |
| 2026-04-19 08:56 | 34.64986 | 117.86524 | 31989 ft | 450 kts | 339° |
| 2026-04-19 08:56 | 34.70991 | 117.84367 | 31989 ft | 450 kts | 339° |
| 2026-04-19 08:57 | 34.77029 | 117.82194 | 31989 ft | 450 kts | 339° |
| 2026-04-19 08:57 | 34.83028 | 117.80023 | 31988 ft | 450 kts | 339° |
| 2026-04-19 08:58 | 34.88989 | 117.77838 | 31994 ft | 451 kts | 339° |
| 2026-04-19 08:58 | 34.95044 | 117.75619 | 31989 ft | 451 kts | 339° |
| 2026-04-19 08:59 | 35.01022 | 117.73432 | 31993 ft | 451 kts | 339° |
| 2026-04-19 08:59 | 35.07037 | 117.71228 | 31986 ft | 451 kts | 339° |
| 2026-04-19 09:00 | 35.13054 | 117.69021 | 31989 ft | 451 kts | 339° |
| 2026-04-19 09:00 | 35.19069 | 117.66813 | 31985 ft | 452 kts | 339° |
| 2026-04-19 09:01 | 35.25093 | 117.64600 | 31981 ft | 452 kts | 339° |
| 2026-04-19 09:01 | 35.31117 | 117.62383 | 31983 ft | 452 kts | 339° |
| 2026-04-19 09:02 | 35.37136 | 117.60164 | 31980 ft | 453 kts | 339° |
| 2026-04-19 09:02 | 35.43173 | 117.57935 | 31976 ft | 454 kts | 339° |
| 2026-04-19 09:03 | 35.49217 | 117.55701 | 31975 ft | 453 kts | 339° |
| 2026-04-19 09:03 | 35.55257 | 117.53464 | 31973 ft | 453 kts | 339° |
| 2026-04-19 09:04 | 35.61290 | 117.51226 | 31973 ft | 453 kts | 339° |
| 2026-04-19 09:04 | 35.67324 | 117.48986 | 31970 ft | 453 kts | 339° |
| 2026-04-19 09:05 | 35.73356 | 117.46740 | 31968 ft | 453 kts | 338° |
| 2026-04-19 09:05 | 35.79378 | 117.44495 | 31967 ft | 452 kts | 338° |
| 2026-04-19 09:06 | 35.85395 | 117.42251 | 31968 ft | 452 kts | 338° |
| 2026-04-19 09:06 | 35.91380 | 117.40004 | 31966 ft | 453 kts | 338° |
| 2026-04-19 09:07 | 35.97411 | 117.37738 | 31964 ft | 453 kts | 338° |
| 2026-04-19 09:07 | 36.03443 | 117.35486 | 31960 ft | 453 kts | 338° |
| 2026-04-19 09:08 | 36.09476 | 117.33250 | 31967 ft | 453 kts | 338° |
| 2026-04-19 09:08 | 36.14536 | 117.31372 | 31970 ft | 453 kts | 338° |
| 2026-04-19 09:09 | 36.20578 | 117.29125 | 31954 ft | 453 kts | 338° |
| 2026-04-19 09:09 | 36.26610 | 117.26879 | 31969 ft | 452 kts | 338° |
| 2026-04-19 09:10 | 36.32638 | 117.24629 | 31967 ft | 453 kts | 338° |
| 2026-04-19 09:10 | 36.38662 | 117.22378 | 31962 ft | 452 kts | 338° |
| 2026-04-19 09:11 | 36.44629 | 117.19987 | 31957 ft | 449 kts | 334° |
| 2026-04-19 09:11 | 36.50388 | 117.17050 | 31967 ft | 447 kts | 332° |
| 2026-04-19 09:12 | 36.56090 | 117.13995 | 31972 ft | 445 kts | 332° |
| 2026-04-19 09:12 | 36.61748 | 117.10990 | 31953 ft | 445 kts | 332° |
| 2026-04-19 09:13 | 36.67494 | 117.07960 | 31953 ft | 445 kts | 332° |
| 2026-04-19 09:13 | 36.73162 | 117.04974 | 31943 ft | 446 kts | 332° |
| 2026-04-19 09:14 | 36.78870 | 117.01963 | 31946 ft | 446 kts | 332° |
| 2026-04-19 09:14 | 36.84586 | 116.98943 | 31948 ft | 446 kts | 331° |
| 2026-04-19 09:15 | 36.90296 | 116.95920 | 31943 ft | 446 kts | 331° |
| 2026-04-19 09:16 | 36.98867 | 116.91373 | 31946 ft | 446 kts | 331° |
| 2026-04-19 09:16 | 37.04578 | 116.88338 | 31942 ft | 446 kts | 331° |
| 2026-04-19 09:17 | 37.10299 | 116.85291 | 31953 ft | 445 kts | 330° |
| 2026-04-19 09:17 | 37.15993 | 116.82255 | 31948 ft | 444 kts | 330° |
| 2026-04-19 09:18 | 37.21762 | 116.79422 | 31947 ft | 448 kts | 335° |
| 2026-04-19 09:18 | 37.27705 | 116.77112 | 31948 ft | 451 kts | 336° |
| 2026-04-19 09:19 | 37.33725 | 116.74880 | 31953 ft | 452 kts | 336° |
| 2026-04-19 09:19 | 37.39757 | 116.72609 | 31952 ft | 453 kts | 336° |
| 2026-04-19 09:20 | 37.45794 | 116.70310 | 31954 ft | 453 kts | 336° |
| 2026-04-19 09:20 | 37.51826 | 116.68003 | 31954 ft | 453 kts | 336° |
| 2026-04-19 09:21 | 37.57855 | 116.65692 | 31961 ft | 454 kts | 335° |
| 2026-04-19 09:21 | 37.63904 | 116.63369 | 31960 ft | 454 kts | 335° |
| 2026-04-19 09:22 | 37.69955 | 116.61044 | 31966 ft | 454 kts | 335° |
| 2026-04-19 09:22 | 37.75997 | 116.58718 | 31959 ft | 452 kts | 335° |
| 2026-04-19 09:22 | 37.78984 | 116.57571 | 31833 ft | 445 kts | 335° |
| 2026-04-19 09:23 | 37.81943 | 116.56433 | 31521 ft | 445 kts | 334° |
| 2026-04-19 09:23 | 37.84910 | 116.55283 | 30976 ft | 447 kts | 335° |
| 2026-04-19 09:23 | 37.87887 | 116.54128 | 30402 ft | 447 kts | 335° |
| 2026-04-19 09:23 | 37.90864 | 116.52973 | 29838 ft | 449 kts | 335° |
| 2026-04-19 09:24 | 37.93861 | 116.51811 | 29195 ft | 452 kts | 335° |
| 2026-04-19 09:24 | 37.96852 | 116.50564 | 28620 ft | 449 kts | 330° |
| 2026-04-19 09:24 | 37.99602 | 116.48798 | 28070 ft | 439 kts | 321° |
| 2026-04-19 09:24 | 38.02115 | 116.46663 | 27518 ft | 432 kts | 317° |
| 2026-04-19 09:25 | 38.04509 | 116.44403 | 26978 ft | 429 kts | 316° |
| 2026-04-19 09:25 | 38.06888 | 116.42100 | 26434 ft | 427 kts | 316° |
| 2026-04-19 09:25 | 38.09252 | 116.39827 | 25903 ft | 425 kts | 316° |
| 2026-04-19 09:25 | 38.11615 | 116.37587 | 25374 ft | 424 kts | 316° |
| 2026-04-19 09:26 | 38.13986 | 116.35365 | 24820 ft | 423 kts | 316° |
| 2026-04-19 09:26 | 38.16354 | 116.33164 | 24263 ft | 421 kts | 317° |
| 2026-04-19 09:26 | 38.18719 | 116.30975 | 23717 ft | 419 kts | 317° |
| 2026-04-19 09:26 | 38.21095 | 116.28827 | 23093 ft | 420 kts | 319° |
| 2026-04-19 09:27 | 38.23643 | 116.26985 | 22526 ft | 425 kts | 328° |
| 2026-04-19 09:27 | 38.26482 | 116.25805 | 21983 ft | 436 kts | 341° |
| 2026-04-19 09:27 | 38.29535 | 116.25528 | 21459 ft | 447 kts | 356° |
| 2026-04-19 09:27 | 38.32639 | 116.26141 | 20861 ft | 455 kts | 7° |
| 2026-04-19 09:28 | 38.35698 | 116.27202 | 20298 ft | 455 kts | 11° |
| 2026-04-19 09:28 | 38.38709 | 116.28399 | 19743 ft | 452 kts | 12° |
| 2026-04-19 09:28 | 38.41699 | 116.29594 | 19177 ft | 448 kts | 11° |
| 2026-04-19 09:28 | 38.44670 | 116.30736 | 18618 ft | 444 kts | 11° |
| 2026-04-19 09:29 | 38.47626 | 116.31824 | 18059 ft | 440 kts | 10° |
| 2026-04-19 09:29 | 38.50567 | 116.32874 | 17447 ft | 437 kts | 10° |
| 2026-04-19 09:29 | 38.53482 | 116.33896 | 16879 ft | 433 kts | 10° |
| 2026-04-19 09:29 | 38.56339 | 116.34889 | 16333 ft | 429 kts | 11° |
| 2026-04-19 09:30 | 38.59204 | 116.35884 | 15797 ft | 425 kts | 11° |
| 2026-04-19 09:30 | 38.62041 | 116.36870 | 15278 ft | 421 kts | 12° |
| 2026-04-19 09:30 | 38.64817 | 116.38005 | 14741 ft | 420 kts | 21° |
| 2026-04-19 09:30 | 38.67390 | 116.39764 | 14229 ft | 419 kts | 31° |
| 2026-04-19 09:31 | 38.69785 | 116.41840 | 13675 ft | 415 kts | 36° |
| 2026-04-19 09:31 | 38.72104 | 116.44024 | 13085 ft | 410 kts | 37° |
| 2026-04-19 09:31 | 38.74372 | 116.46194 | 12555 ft | 404 kts | 36° |
| 2026-04-19 09:31 | 38.76621 | 116.48327 | 12021 ft | 400 kts | 36° |
| 2026-04-19 09:32 | 38.78853 | 116.50417 | 11513 ft | 395 kts | 35° |
| 2026-04-19 09:32 | 38.81067 | 116.52467 | 11076 ft | 389 kts | 34° |
| 2026-04-19 09:32 | 38.83252 | 116.54478 | 10877 ft | 383 kts | 34° |
| 2026-04-19 09:32 | 38.85347 | 116.56403 | 10767 ft | 359 kts | 33° |
| 2026-04-19 09:33 | 38.87316 | 116.58211 | 10649 ft | 338 kts | 34° |
| 2026-04-19 09:33 | 38.89175 | 116.59917 | 10520 ft | 319 kts | 34° |
| 2026-04-19 09:33 | 38.90963 | 116.61556 | 10410 ft | 316 kts | 34° |
| 2026-04-19 09:33 | 38.92738 | 116.63181 | 10163 ft | 311 kts | 34° |
| 2026-04-19 09:34 | 38.94507 | 116.64802 | 9712 ft | 313 kts | 34° |
| 2026-04-19 09:34 | 38.96241 | 116.66395 | 9197 ft | 299 kts | 33° |
| 2026-04-19 09:34 | 38.97930 | 116.67949 | 8810 ft | 301 kts | 33° |
| 2026-04-19 09:34 | 38.99610 | 116.69494 | 8428 ft | 295 kts | 33° |
| 2026-04-19 09:35 | 39.01272 | 116.71027 | 8061 ft | 292 kts | 31° |
| 2026-04-19 09:35 | 39.02964 | 116.72369 | 7841 ft | 282 kts | 19° |
| 2026-04-19 09:35 | 39.04819 | 116.72874 | 7786 ft | 269 kts | 355° |
| 2026-04-19 09:35 | 39.06678 | 116.72735 | 7773 ft | 267 kts | 350° |
| 2026-04-19 09:36 | 39.08524 | 116.72454 | 7780 ft | 268 kts | 348° |
| 2026-04-19 09:36 | 39.10374 | 116.72161 | 7776 ft | 268 kts | 348° |
| 2026-04-19 09:36 | 39.12223 | 116.71868 | 7773 ft | 267 kts | 348° |
| 2026-04-19 09:36 | 39.14068 | 116.71579 | 7774 ft | 267 kts | 349° |
| 2026-04-19 09:37 | 39.15916 | 116.71306 | 7771 ft | 266 kts | 348° |
| 2026-04-19 09:37 | 39.17752 | 116.71024 | 7776 ft | 266 kts | 348° |
| 2026-04-19 09:37 | 39.19586 | 116.70738 | 7777 ft | 266 kts | 348° |
| 2026-04-19 09:37 | 39.21422 | 116.70453 | 7788 ft | 266 kts | 347° |
| 2026-04-19 09:38 | 39.23256 | 116.70172 | 7787 ft | 264 kts | 348° |
| 2026-04-19 09:38 | 39.25081 | 116.69892 | 7786 ft | 264 kts | 348° |
| 2026-04-19 09:38 | 39.26904 | 116.69613 | 7792 ft | 264 kts | 348° |
| 2026-04-19 09:38 | 39.28729 | 116.69325 | 7791 ft | 263 kts | 346° |
| 2026-04-19 09:39 | 39.30474 | 116.68714 | 7783 ft | 255 kts | 330° |
| 2026-04-19 09:39 | 39.31810 | 116.67460 | 7759 ft | 224 kts | 308° |
| 2026-04-19 09:39 | 39.32578 | 116.65751 | 7757 ft | 220 kts | 287° |
| 2026-04-19 09:39 | 39.32776 | 116.63825 | 7749 ft | 221 kts | 270° |
| 2026-04-19 09:40 | 39.32640 | 116.61822 | 7753 ft | 221 kts | 264° |
| 2026-04-19 09:40 | 39.32185 | 116.59945 | 7753 ft | 225 kts | 245° |
| 2026-04-19 09:40 | 39.31107 | 116.58414 | 7745 ft | 236 kts | 219° |
| 2026-04-19 09:40 | 39.29540 | 116.57739 | 7745 ft | 250 kts | 190° |
| 2026-04-19 09:41 | 39.27757 | 116.57821 | 7766 ft | 256 kts | 180° |
| 2026-04-19 09:41 | 39.26006 | 116.58086 | 7763 ft | 257 kts | 179° |
| 2026-04-19 09:41 | 39.24230 | 116.58376 | 7762 ft | 257 kts | 179° |
| 2026-04-19 09:41 | 39.22451 | 116.58664 | 7645 ft | 258 kts | 178° |
| 2026-04-19 09:42 | 39.20683 | 116.58947 | 7488 ft | 256 kts | 178° |
| 2026-04-19 09:42 | 39.18911 | 116.59227 | 7237 ft | 256 kts | 178° |
| 2026-04-19 09:42 | 39.17138 | 116.59505 | 6999 ft | 256 kts | 178° |
| 2026-04-19 09:42 | 39.15371 | 116.59718 | 6757 ft | 254 kts | 185° |
| 2026-04-19 09:43 | 39.13687 | 116.59307 | 6510 ft | 242 kts | 211° |
| 2026-04-19 09:43 | 39.12419 | 116.58003 | 6274 ft | 230 kts | 240° |
| 2026-04-19 09:43 | 39.11824 | 116.56163 | 6037 ft | 221 kts | 262° |
| 2026-04-19 09:43 | 39.11581 | 116.54214 | 5785 ft | 220 kts | 266° |
| 2026-04-19 09:44 | 39.11386 | 116.52265 | 5542 ft | 219 kts | 267° |
| 2026-04-19 09:44 | 39.11221 | 116.50320 | 5298 ft | 217 kts | 271° |
| 2026-04-19 09:44 | 39.11395 | 116.48429 | 5057 ft | 210 kts | 291° |
| 2026-04-19 09:44 | 39.12071 | 116.46940 | 4821 ft | 180 kts | 313° |
| 2026-04-19 09:45 | 39.12993 | 116.46081 | 4491 ft | 153 kts | 333° |
| 2026-04-19 09:45 | 39.13995 | 116.45726 | 4214 ft | 149 kts | 346° |
| 2026-04-19 09:45 | 39.15014 | 116.45517 | 4080 ft | 148 kts | 346° |
| 2026-04-19 09:45 | 39.16028 | 116.45303 | 4050 ft | 149 kts | 346° |
| 2026-04-19 09:46 | 39.17045 | 116.45111 | 3937 ft | 148 kts | 347° |
| 2026-04-19 09:46 | 39.18066 | 116.44939 | 3929 ft | 148 kts | 347° |
| 2026-04-19 09:46 | 39.19086 | 116.44769 | 3925 ft | 148 kts | 348° |
| 2026-04-19 09:46 | 39.20104 | 116.44601 | 3924 ft | 147 kts | 348° |
| 2026-04-19 09:47 | 39.21118 | 116.44435 | 3927 ft | 146 kts | 348° |
| 2026-04-19 09:47 | 39.22123 | 116.44273 | 3925 ft | 145 kts | 347° |
| 2026-04-19 09:47 | 39.23120 | 116.44112 | 3923 ft | 144 kts | 347° |
| 2026-04-19 09:47 | 39.24116 | 116.43953 | 3925 ft | 144 kts | 348° |
| 2026-04-19 09:48 | 39.25112 | 116.43794 | 3925 ft | 144 kts | 348° |
| 2026-04-19 09:48 | 39.26110 | 116.43636 | 3924 ft | 144 kts | 348° |
| 2026-04-19 09:48 | 39.27107 | 116.43478 | 3926 ft | 144 kts | 347° |
| 2026-04-19 09:48 | 39.28101 | 116.43320 | 3935 ft | 143 kts | 349° |
| 2026-04-19 09:49 | 39.29084 | 116.43167 | 3851 ft | 142 kts | 349° |
| 2026-04-19 09:49 | 39.30058 | 116.43014 | 3669 ft | 141 kts | 349° |
| 2026-04-19 09:49 | 39.31027 | 116.42862 | 3500 ft | 140 kts | 349° |
| 2026-04-19 09:49 | 39.31982 | 116.42712 | 3322 ft | 140 kts | 350° |
| 2026-04-19 09:50 | 39.32946 | 116.42561 | 3151 ft | 139 kts | 350° |
| 2026-04-19 09:50 | 39.33910 | 116.42410 | 2964 ft | 140 kts | 351° |
| 2026-04-19 09:50 | 39.34875 | 116.42259 | 2786 ft | 141 kts | 351° |
| 2026-04-19 09:50 | 39.35849 | 116.42107 | 2585 ft | 141 kts | 351° |
| 2026-04-19 09:51 | 39.36825 | 116.41954 | 2415 ft | 142 kts | 352° |
| 2026-04-19 09:51 | 39.37810 | 116.41800 | 2221 ft | 144 kts | 352° |
| 2026-04-19 09:51 | 39.38809 | 116.41643 | 2046 ft | 145 kts | 353° |
| 2026-04-19 09:51 | 39.39807 | 116.41487 | 1845 ft | 145 kts | 353° |
| 2026-04-19 09:52 | 39.40813 | 116.41331 | 1655 ft | 146 kts | 353° |
| 2026-04-19 09:52 | 39.41825 | 116.41172 | 1458 ft | 147 kts | 353° |
| 2026-04-19 09:52 | 39.42840 | 116.41013 | 1244 ft | 147 kts | 352° |
| 2026-04-19 09:52 | 39.43867 | 116.40851 | 1048 ft | 150 kts | 353° |
| 2026-04-19 09:53 | 39.44914 | 116.40688 | 836 ft | 153 kts | 354° |
| 2026-04-19 09:53 | 39.45973 | 116.40521 | 633 ft | 153 kts | 354° |
| 2026-04-19 09:53 | 39.47016 | 116.40368 | 391 ft | 148 kts | 354° |
| 2026-04-19 09:53 | 39.48061 | 116.40219 | 195 ft | 151 kts | 353° |
| 2026-04-19 09:54 | 39.49067 | 116.40046 | 106 ft | 126 kts | 353° |
| 2026-04-19 09:54 | 39.49554 | 116.39970 | 103 ft | 88 kts | 353° |
| 2026-04-19 09:54 | 39.50112 | 116.39935 | 106 ft | 37 kts | 19° |
| 2026-04-19 09:54 | 39.50260 | 116.40007 | 100 ft | 33 kts | 20° |
| 2026-04-19 09:55 | 39.50518 | 116.40043 | 95 ft | 22 kts | 351° |
| 2026-04-19 09:55 | 39.50611 | 116.40027 | 96 ft | 22 kts | 353° |
| 2026-04-19 09:55 | 39.50825 | 116.39992 | 95 ft | 17 kts | 353° |
| 2026-04-19 09:55 | 39.50886 | 116.39986 | 95 ft | 8 kts | 3° |
| 2026-04-19 09:56 | 39.50903 | 116.40000 | 95 ft | 5 kts | 41° |
| 2026-04-19 09:56 | 39.50912 | 116.40050 | 94 ft | 9 kts | 83° |
| 2026-04-19 09:56 | 39.50922 | 116.40164 | 95 ft | 17 kts | 83° |
| 2026-04-19 09:56 | 39.50937 | 116.40312 | 96 ft | 11 kts | 83° |
| 2026-04-19 09:57 | 39.50941 | 116.40359 | 95 ft | 1 kts | 83° |
| 2026-04-19 09:57 | 39.50945 | 116.40402 | 93 ft | 9 kts | 83° |
| 2026-04-19 09:57 | 39.50951 | 116.40476 | 93 ft | 1 kts | 83° |
| 2026-04-19 09:57 | 39.50955 | 116.40525 | 92 ft | 10 kts | 83° |
| 2026-04-19 09:58 | 39.50983 | 116.40593 | 94 ft | 6 kts | 44° |
| 2026-04-19 09:58 | 39.51015 | 116.40613 | 93 ft | 5 kts | 23° |
| 2026-04-19 09:58 | 39.51043 | 116.40628 | 94 ft | 3 kts | 22° |
| 2026-04-19 09:58 | 39.51057 | 116.40635 | 94 ft | 0 kts | 21° |